createdAt,value
2023-04-09T00:02:00.869Z,90.43
2023-04-09T00:04:29.159Z,91.92
2023-04-09T00:06:57.461Z,93.10
2023-04-09T00:09:25.931Z,93.81
2023-04-09T00:11:54.207Z,95.47
2023-04-09T00:14:22.540Z,97.36
2023-04-09T00:16:51.177Z,95.74
2023-04-09T00:19:20.820Z,94.16
2023-04-09T00:21:49.563Z,93.11
2023-04-09T00:24:17.904Z,92.95
2023-04-09T00:26:46.570Z,92.57
2023-04-09T00:29:14.802Z,93.66
2023-04-09T00:31:43.144Z,92.31
2023-04-09T00:34:11.662Z,91.12
2023-04-09T00:36:41.400Z,91.71
2023-04-09T00:39:09.684Z,92.16
2023-04-09T00:41:37.985Z,91.69
2023-04-09T00:44:06.217Z,91.03
2023-04-09T00:46:34.505Z,91.73
2023-04-09T00:49:02.932Z,91.92
2023-04-09T00:51:31.560Z,91.94
2023-04-09T00:54:01.303Z,90.37
2023-04-09T00:56:31.312Z,90.57
2023-04-09T00:58:59.574Z,92.57
2023-04-09T01:01:27.866Z,91.28
2023-04-09T01:03:56.646Z,90.85
2023-04-09T01:06:34.475Z,90.81
2023-04-09T01:09:10.586Z,90.91
2023-04-09T01:11:44.774Z,92.78
2023-04-09T01:14:21.728Z,92.93
2023-04-09T01:16:56.546Z,92.42
2023-04-09T01:19:38.908Z,92.91
2023-04-09T01:22:15.544Z,92.44
2023-04-09T01:24:58.358Z,91.68
2023-04-09T01:27:35.909Z,91.41
2023-04-09T01:30:06.688Z,91.68
2023-04-09T01:32:38.263Z,90.95
2023-04-09T01:35:08.520Z,92.14
2023-04-09T01:37:37.637Z,92.04
2023-04-09T01:40:07.284Z,91.15
2023-04-09T01:42:37.898Z,90.32
2023-04-09T01:45:09.378Z,91.51
2023-04-09T01:47:38.247Z,91.98
2023-04-09T01:50:07.684Z,93.04
2023-04-09T01:52:36.685Z,94.94
2023-04-09T01:55:05.278Z,94.15
2023-04-09T01:57:33.648Z,97.23
2023-04-09T02:00:02.051Z,95.11
2023-04-09T02:02:37.896Z,93.42
2023-04-09T02:05:11.748Z,93.78
2023-04-09T02:07:44.096Z,98.73
2023-04-09T02:10:17.450Z,99.50
2023-04-09T02:12:51.305Z,99.45
2023-04-09T02:15:20.931Z,98.76
2023-04-09T02:17:50.865Z,100.00
2023-04-09T02:20:19.986Z,100.00
2023-04-09T02:22:48.611Z,100.00
2023-04-09T02:25:16.943Z,100.00
2023-04-09T02:27:45.257Z,100.00
2023-04-09T02:30:13.692Z,100.00
2023-04-09T02:32:42.032Z,100.00
2023-04-09T02:35:11.822Z,100.00
2023-04-09T02:37:40.058Z,100.00
2023-04-09T02:40:09.348Z,100.00
2023-04-09T02:42:37.671Z,100.00
2023-04-09T02:45:06.570Z,100.00
2023-04-09T02:47:34.876Z,100.00
2023-04-09T02:50:03.163Z,100.00
2023-04-09T02:52:32.892Z,100.00
2023-04-09T02:55:01.327Z,100.00
2023-04-09T02:57:30.507Z,100.00
2023-04-09T02:59:58.758Z,100.00
2023-04-09T03:02:27.452Z,100.00
2023-04-09T03:04:55.871Z,100.00
2023-04-09T03:07:24.247Z,100.00
2023-04-09T03:09:53.930Z,100.00
2023-04-09T03:12:22.218Z,100.00
2023-04-09T03:14:50.545Z,100.00
2023-04-09T03:17:18.940Z,100.00
2023-04-09T03:19:47.298Z,100.00
2023-04-09T03:22:15.484Z,100.00
2023-04-09T03:24:43.848Z,100.00
2023-04-09T03:27:13.512Z,100.00
2023-04-09T03:29:41.815Z,100.00
2023-04-09T03:32:10.136Z,99.78
2023-04-09T03:34:38.483Z,99.13
2023-04-09T03:37:06.764Z,99.35
2023-04-09T03:39:34.996Z,98.58
2023-04-09T03:42:03.602Z,99.79
2023-04-09T03:44:33.264Z,98.33
2023-04-09T03:47:01.668Z,95.79
2023-04-09T03:49:30.113Z,95.02
2023-04-09T03:51:58.448Z,96.49
2023-04-09T03:54:27.258Z,100.00
2023-04-09T03:56:56.383Z,100.00
2023-04-09T03:59:25.134Z,100.00
2023-04-09T04:01:54.908Z,100.00
2023-04-09T04:04:23.884Z,100.00
2023-04-09T04:06:52.406Z,100.00
2023-04-09T04:09:20.734Z,100.00
2023-04-09T04:11:49.039Z,100.00
2023-04-09T04:14:17.424Z,100.00
2023-04-09T04:16:45.915Z,100.00
2023-04-09T04:19:15.656Z,100.00
2023-04-09T04:21:43.941Z,100.00
2023-04-09T04:24:12.163Z,100.00
2023-04-09T04:26:41.578Z,100.00
2023-04-09T04:29:10.034Z,100.00
2023-04-09T04:31:38.318Z,100.00
2023-04-09T04:34:06.700Z,100.00
2023-04-09T04:36:37.804Z,100.00
2023-04-09T04:39:06.180Z,100.00
2023-04-09T04:41:34.469Z,100.00
2023-04-09T04:44:02.871Z,99.79
2023-04-09T04:46:31.208Z,99.17
2023-04-09T04:49:02.498Z,99.36
2023-04-09T04:51:32.502Z,98.85
2023-04-09T04:54:02.250Z,98.03
2023-04-09T04:56:31.631Z,96.58
2023-04-09T04:58:59.943Z,97.02
2023-04-09T05:01:28.243Z,95.83
2023-04-09T05:03:56.850Z,96.39
2023-04-09T05:06:26.407Z,94.76
2023-04-09T05:08:58.118Z,94.23
2023-04-09T05:11:27.923Z,93.29
2023-04-09T05:13:56.233Z,94.21
2023-04-09T05:16:25.139Z,94.29
2023-04-09T05:18:53.784Z,95.01
2023-04-09T05:21:22.324Z,93.77
2023-04-09T05:23:50.649Z,91.08
2023-04-09T05:26:19.039Z,92.79
2023-04-09T05:28:48.944Z,90.71
2023-04-09T05:31:17.486Z,92.56
2023-04-09T05:33:45.988Z,92.50
2023-04-09T05:36:17.504Z,91.22
2023-04-09T05:38:47.216Z,92.83
2023-04-09T05:41:16.596Z,95.55
2023-04-09T05:43:44.885Z,94.80
2023-04-09T05:46:14.639Z,95.80
2023-04-09T05:48:42.978Z,97.95
2023-04-09T05:51:11.333Z,96.74
2023-04-09T05:53:39.680Z,93.88
2023-04-09T05:56:15.732Z,90.61
2023-04-09T05:58:44.296Z,89.34
2023-04-09T06:01:12.621Z,88.22
2023-04-09T06:03:42.541Z,88.91
2023-04-09T06:06:11.057Z,87.46
2023-04-09T06:08:39.395Z,86.87
2023-04-09T06:11:11.117Z,85.58
2023-04-09T06:13:39.667Z,86.76
2023-04-09T06:16:08.963Z,82.86
2023-04-09T06:18:38.229Z,82.74
2023-04-09T06:21:09.478Z,82.27
2023-04-09T06:23:38.279Z,85.45
2023-04-09T06:26:06.769Z,86.32
2023-04-09T06:28:35.130Z,85.61
2023-04-09T06:31:04.861Z,84.45
2023-04-09T06:33:33.171Z,87.30
2023-04-09T06:36:01.609Z,89.60
2023-04-09T06:38:31.298Z,90.85
2023-04-09T06:40:59.583Z,90.98
2023-04-09T06:43:27.962Z,91.11
2023-04-09T06:45:56.722Z,92.77
2023-04-09T06:48:25.131Z,89.93
2023-04-09T06:50:53.466Z,87.14
2023-04-09T06:53:21.738Z,85.45
2023-04-09T06:55:51.486Z,84.19
2023-04-09T06:58:21.182Z,81.23
2023-04-09T07:00:49.462Z,78.91
2023-04-09T07:03:17.876Z,78.13
2023-04-09T07:05:46.539Z,80.56
2023-04-09T07:08:14.992Z,74.83
2023-04-09T07:10:43.357Z,73.00
2023-04-09T07:13:13.026Z,71.56
2023-04-09T07:15:42.516Z,69.86
2023-04-09T07:18:11.086Z,68.56
2023-04-09T07:20:39.719Z,66.65
2023-04-09T07:23:08.057Z,69.07
2023-04-09T07:25:36.624Z,70.75
2023-04-09T07:28:05.014Z,67.72
2023-04-09T07:30:34.826Z,65.68
2023-04-09T07:33:03.117Z,62.43
2023-04-09T07:35:32.245Z,61.42
2023-04-09T07:38:00.590Z,60.47
2023-04-09T07:40:29.000Z,58.92
2023-04-09T07:42:58.196Z,57.67
2023-04-09T07:45:26.757Z,56.33
2023-04-09T07:47:56.503Z,56.49
2023-04-09T07:50:25.053Z,54.70
2023-04-09T07:52:53.400Z,53.51
2023-04-09T07:55:21.851Z,50.50
2023-04-09T07:57:51.779Z,51.57
2023-04-09T08:00:20.494Z,50.58
2023-04-09T08:02:49.117Z,51.20
2023-04-09T08:05:19.107Z,51.31
2023-04-09T08:07:47.426Z,50.29
2023-04-09T08:10:16.543Z,49.38
2023-04-09T08:12:45.478Z,50.86
2023-04-09T08:15:13.792Z,48.34
2023-04-09T08:17:42.130Z,47.95
2023-04-09T08:20:11.549Z,46.15
2023-04-09T08:22:42.862Z,46.31
2023-04-09T08:25:11.378Z,45.36
2023-04-09T08:27:39.921Z,45.04
2023-04-09T08:30:09.710Z,43.53
2023-04-09T08:32:38.131Z,45.43
2023-04-09T08:35:07.432Z,44.55
2023-04-09T08:37:35.869Z,43.94
2023-04-09T08:40:06.235Z,44.01
2023-04-09T08:42:37.025Z,41.33
2023-04-09T08:45:06.122Z,40.01
2023-04-09T08:47:38.240Z,39.44
2023-04-09T08:50:07.214Z,39.98
2023-04-09T08:52:36.411Z,37.60
2023-04-09T08:55:07.322Z,36.20
2023-04-09T08:57:41.399Z,37.25
2023-04-09T09:00:10.674Z,36.89
2023-04-09T09:02:40.080Z,38.28
2023-04-09T09:05:09.017Z,39.12
2023-04-09T09:07:37.461Z,37.56
2023-04-09T09:10:08.200Z,37.86
2023-04-09T09:12:39.484Z,38.77
2023-04-09T09:15:27.519Z,38.71
2023-04-09T09:17:57.729Z,39.93
2023-04-09T09:20:27.231Z,39.33
2023-04-09T09:22:57.847Z,38.33
2023-04-09T09:25:27.833Z,38.48
2023-04-09T09:27:56.289Z,38.40
2023-04-09T09:30:26.064Z,39.17
2023-04-09T09:32:55.278Z,37.36
2023-04-09T09:35:23.838Z,38.94
2023-04-09T09:38:03.955Z,35.96
2023-04-09T09:40:33.789Z,36.49
2023-04-09T09:43:02.064Z,38.09
2023-04-09T09:45:31.607Z,36.21
2023-04-09T09:47:59.947Z,36.50
2023-04-09T09:50:31.950Z,35.42
2023-04-09T09:53:04.020Z,35.16
2023-04-09T09:55:35.951Z,35.18
2023-04-09T09:58:17.756Z,32.86
2023-04-09T10:00:51.484Z,33.78
2023-04-09T10:03:24.151Z,33.98
2023-04-09T10:05:53.591Z,33.88
2023-04-09T10:08:23.443Z,33.33
2023-04-09T10:10:53.806Z,32.38
2023-04-09T10:13:29.851Z,32.81
2023-04-09T10:15:58.933Z,33.63
2023-04-09T10:18:27.579Z,33.78
2023-04-09T10:21:00.459Z,35.11
2023-04-09T10:23:35.779Z,35.72
2023-04-09T10:26:06.886Z,35.14
2023-04-09T10:28:35.401Z,33.64
2023-04-09T10:31:06.354Z,34.10
2023-04-09T10:33:37.507Z,33.69
2023-04-09T10:36:07.259Z,34.04
2023-04-09T10:38:37.336Z,34.28
2023-04-09T10:41:15.468Z,35.29
2023-04-09T10:43:44.280Z,37.20
2023-04-09T10:46:27.986Z,37.01
2023-04-09T10:49:13.797Z,39.11
2023-04-09T10:51:42.722Z,37.02
2023-04-09T10:54:44.060Z,37.58
2023-04-09T10:57:15.159Z,41.14
2023-04-09T10:59:45.139Z,39.11
2023-04-09T11:02:46.173Z,39.87
2023-04-09T11:05:24.455Z,41.12
2023-04-09T11:07:59.638Z,42.19
2023-04-09T11:10:28.593Z,43.30
2023-04-09T11:12:58.335Z,43.35
2023-04-09T11:15:27.207Z,43.00
2023-04-09T11:17:55.849Z,43.53
2023-04-09T11:20:25.493Z,42.87
2023-04-09T11:22:55.245Z,42.04
2023-04-09T11:25:25.721Z,42.08
2023-04-09T11:27:54.713Z,41.64
2023-04-09T11:30:24.555Z,41.45
2023-04-09T11:32:52.963Z,40.85
2023-04-09T11:35:23.865Z,41.71
2023-04-09T11:37:53.382Z,41.47
2023-04-09T11:40:23.604Z,41.95
2023-04-09T11:42:53.372Z,42.38
2023-04-09T11:45:24.622Z,42.75
2023-04-09T11:47:53.732Z,42.59
2023-04-09T11:50:22.771Z,43.66
2023-04-09T11:52:51.413Z,43.98
2023-04-09T11:55:26.737Z,44.00
2023-04-09T11:57:58.166Z,43.36
2023-04-09T12:00:28.904Z,42.87
2023-04-09T12:03:03.207Z,43.88
2023-04-09T12:05:33.154Z,44.58
2023-04-09T12:08:05.141Z,44.70
2023-04-09T12:10:35.240Z,43.71
2023-04-09T12:13:04.554Z,44.44
2023-04-09T12:15:36.357Z,43.79
2023-04-09T12:18:04.842Z,43.57
2023-04-09T12:20:35.431Z,42.78
2023-04-09T12:23:05.949Z,42.96
2023-04-09T12:25:36.861Z,42.93
2023-04-09T12:28:06.303Z,42.82
2023-04-09T12:30:36.786Z,42.76
2023-04-09T12:33:06.152Z,42.28
2023-04-09T12:35:35.815Z,42.91
2023-04-09T12:38:05.124Z,42.52
2023-04-09T12:40:33.565Z,44.13
2023-04-09T12:43:02.598Z,43.72
2023-04-09T12:45:31.444Z,44.97
2023-04-09T12:48:01.178Z,44.61
2023-04-09T12:50:29.657Z,44.77
2023-04-09T12:52:58.037Z,44.97
2023-04-09T12:55:26.326Z,44.27
2023-04-09T12:57:54.578Z,43.68
2023-04-09T13:00:22.837Z,43.85
2023-04-09T13:02:52.986Z,43.70
2023-04-09T13:05:22.850Z,42.82
2023-04-09T13:07:51.616Z,42.27
2023-04-09T13:10:20.436Z,42.23
2023-04-09T13:12:48.766Z,42.62
2023-04-09T13:15:17.172Z,42.18
2023-04-09T13:17:45.522Z,42.03
2023-04-09T13:20:14.276Z,42.51
2023-04-09T13:22:47.150Z,41.98
2023-04-09T13:25:15.629Z,41.98
2023-04-09T13:27:43.891Z,41.97
2023-04-09T13:30:12.933Z,42.45
2023-04-09T13:32:41.495Z,42.97
2023-04-09T13:35:11.113Z,43.74
2023-04-09T13:37:39.416Z,43.28
2023-04-09T13:40:10.531Z,42.41
2023-04-09T13:42:38.889Z,43.60
2023-04-09T13:45:08.334Z,42.37
2023-04-09T13:47:36.809Z,43.30
2023-04-09T13:50:05.923Z,42.97
2023-04-09T13:52:34.306Z,43.43
2023-04-09T13:55:03.969Z,42.31
2023-04-09T13:57:33.787Z,43.92
2023-04-09T14:00:04.865Z,44.31
2023-04-09T14:02:33.484Z,44.23
2023-04-09T14:05:02.701Z,44.16
2023-04-09T14:07:30.946Z,43.79
2023-04-09T14:09:59.244Z,44.04
2023-04-09T14:12:27.564Z,43.07
2023-04-09T14:14:57.294Z,42.56
2023-04-09T14:17:25.722Z,44.12
2023-04-09T14:19:54.007Z,42.73
2023-04-09T14:22:22.286Z,42.23
2023-04-09T14:24:51.333Z,43.92
2023-04-09T14:27:19.531Z,43.43
2023-04-09T14:29:47.782Z,42.47
2023-04-09T14:32:17.645Z,42.79
2023-04-09T14:34:46.143Z,43.93
2023-04-09T14:37:14.511Z,43.78
2023-04-09T14:39:42.828Z,44.62
2023-04-09T14:42:11.140Z,45.16
2023-04-09T14:44:39.373Z,45.01
2023-04-09T14:47:07.711Z,44.93
2023-04-09T14:49:37.431Z,45.73
2023-04-09T14:52:06.035Z,45.96
2023-04-09T14:54:34.353Z,46.05
2023-04-09T14:57:03.945Z,45.06
2023-04-09T14:59:32.200Z,44.53
2023-04-09T15:02:00.765Z,46.59
2023-04-09T15:04:29.275Z,46.65
2023-04-09T15:06:59.050Z,47.85
2023-04-09T15:09:27.356Z,48.33
2023-04-09T15:11:56.214Z,47.44
2023-04-09T15:14:25.078Z,48.57
2023-04-09T15:16:55.941Z,47.55
2023-04-09T15:19:24.327Z,49.03
2023-04-09T15:21:52.664Z,49.97
2023-04-09T15:24:22.332Z,49.17
2023-04-09T15:26:51.233Z,50.19
2023-04-09T15:29:19.729Z,50.42
2023-04-09T15:31:49.180Z,51.16
2023-04-09T15:34:17.512Z,52.08
2023-04-09T15:36:46.540Z,53.55
2023-04-09T15:39:15.195Z,53.79
2023-04-09T15:41:44.959Z,54.58
2023-04-09T15:44:13.258Z,55.98
2023-04-09T15:46:41.804Z,56.76
2023-04-09T15:49:10.055Z,57.16
2023-04-09T15:51:38.364Z,56.52
2023-04-09T15:54:06.621Z,56.72
2023-04-09T15:56:36.912Z,57.44
2023-04-09T15:59:08.025Z,57.17
2023-04-09T16:01:36.790Z,57.79
2023-04-09T16:04:05.952Z,58.36
2023-04-09T16:06:34.484Z,57.51
2023-04-09T16:09:03.069Z,57.83
2023-04-09T16:11:31.653Z,58.23
2023-04-09T16:14:00.229Z,58.27
2023-04-09T16:16:29.898Z,58.58
2023-04-09T16:18:58.303Z,58.20
2023-04-09T16:21:27.740Z,58.57
2023-04-09T16:23:56.212Z,59.12
2023-04-09T16:26:24.631Z,59.02
2023-04-09T16:28:53.085Z,59.44
2023-04-09T16:31:21.547Z,58.90
2023-04-09T16:33:51.468Z,59.54
2023-04-09T16:36:19.790Z,59.98
2023-04-09T16:38:48.260Z,60.29
2023-04-09T16:41:16.943Z,58.96
2023-04-09T16:43:46.694Z,58.93
2023-04-09T16:46:15.030Z,59.76
2023-04-09T16:48:43.422Z,60.22
2023-04-09T16:51:13.116Z,59.99
2023-04-09T16:53:41.508Z,60.88
2023-04-09T16:56:10.302Z,60.61
2023-04-09T16:58:39.072Z,60.98
2023-04-09T17:01:07.507Z,61.81
2023-04-09T17:03:35.989Z,62.05
2023-04-09T17:06:04.892Z,63.15
2023-04-09T17:08:35.418Z,63.48
2023-04-09T17:11:03.729Z,67.01
2023-04-09T17:13:35.255Z,64.98
2023-04-09T17:16:04.038Z,64.15
2023-04-09T17:18:32.506Z,64.00
2023-04-09T17:21:00.786Z,66.26
2023-04-09T17:23:29.045Z,66.30
2023-04-09T17:26:00.414Z,68.27
2023-04-09T17:28:28.714Z,67.91
2023-04-09T17:30:57.007Z,70.75
2023-04-09T17:33:25.329Z,71.94
2023-04-09T17:35:53.713Z,70.43
2023-04-09T17:38:24.877Z,71.87
2023-04-09T17:40:54.844Z,74.47
2023-04-09T17:43:24.547Z,71.46
2023-04-09T17:45:52.885Z,73.97
2023-04-09T17:48:21.202Z,74.11
2023-04-09T17:50:50.191Z,74.33
2023-04-09T17:53:18.600Z,74.41
2023-04-09T17:55:48.890Z,75.86
2023-04-09T17:58:25.238Z,73.43
2023-04-09T18:00:54.116Z,74.28
2023-04-09T18:03:22.583Z,73.93
2023-04-09T18:05:51.143Z,74.92
2023-04-09T18:08:19.480Z,76.38
2023-04-09T18:11:04.781Z,77.62
2023-04-09T18:13:41.138Z,82.24
2023-04-09T18:16:10.765Z,84.94
2023-04-09T18:18:39.195Z,86.07
2023-04-09T18:21:07.784Z,85.69
2023-04-09T18:23:36.359Z,87.73
2023-04-09T18:26:04.722Z,88.32
2023-04-09T18:28:33.074Z,92.18
2023-04-09T18:31:02.793Z,94.21
2023-04-09T18:33:31.736Z,94.87
2023-04-09T18:36:01.806Z,94.05
2023-04-09T18:38:30.550Z,92.12
2023-04-09T18:40:59.054Z,93.54
2023-04-09T18:43:27.358Z,92.73
2023-04-09T18:45:56.100Z,96.54
2023-04-09T18:48:26.012Z,98.69
2023-04-09T18:50:54.413Z,100.00
2023-04-09T18:53:22.778Z,100.00
2023-04-09T18:55:50.973Z,100.00
2023-04-09T18:58:19.240Z,100.00
2023-04-09T19:00:50.714Z,100.00
2023-04-09T19:03:19.430Z,100.00
2023-04-09T19:05:49.732Z,100.00
2023-04-09T19:08:18.079Z,100.00
2023-04-09T19:10:47.699Z,100.00
2023-04-09T19:13:16.994Z,100.00
2023-04-09T19:15:46.004Z,100.00
2023-04-09T19:18:14.268Z,100.00
2023-04-09T19:20:42.484Z,100.00
2023-04-09T19:23:12.218Z,100.00
2023-04-09T19:25:41.118Z,98.52
2023-04-09T19:28:09.437Z,96.16
2023-04-09T19:30:37.816Z,98.62
2023-04-09T19:33:06.150Z,94.06
2023-04-09T19:35:35.980Z,95.59
2023-04-09T19:38:05.106Z,94.59
2023-04-09T19:40:35.009Z,95.21
2023-04-09T19:43:03.299Z,94.88
2023-04-09T19:45:31.622Z,97.41
2023-04-09T19:48:00.003Z,97.13
2023-04-09T19:50:28.547Z,97.42
2023-04-09T19:52:57.028Z,97.92
2023-04-09T19:55:25.378Z,100.00
2023-04-09T19:57:54.983Z,100.00
2023-04-09T20:00:23.305Z,100.00
2023-04-09T20:02:52.043Z,100.00
2023-04-09T20:05:21.317Z,100.00
2023-04-09T20:07:49.840Z,100.00
2023-04-09T20:10:18.333Z,100.00
2023-04-09T20:12:48.682Z,100.00
2023-04-09T20:15:20.260Z,100.00
2023-04-09T20:17:49.339Z,100.00
2023-04-09T20:20:20.133Z,100.00
2023-04-09T20:22:56.504Z,100.00
2023-04-09T20:25:25.638Z,99.38
2023-04-09T20:27:54.665Z,97.22
2023-04-09T20:30:24.438Z,95.43
2023-04-09T20:32:52.805Z,93.87
2023-04-09T20:35:21.153Z,92.56
2023-04-09T20:37:50.041Z,93.98
2023-04-09T20:40:18.462Z,92.60
2023-04-09T20:42:46.824Z,90.41
2023-04-09T20:45:15.166Z,91.72
2023-04-09T20:47:44.909Z,91.57
2023-04-09T20:50:13.365Z,89.50
2023-04-09T20:52:41.937Z,90.98
2023-04-09T20:55:10.670Z,90.62
2023-04-09T20:57:38.989Z,94.43
2023-04-09T21:00:08.770Z,87.46
2023-04-09T21:02:37.227Z,87.32
2023-04-09T21:05:19.693Z,88.12
2023-04-09T21:07:51.870Z,85.85
2023-04-09T21:10:20.257Z,88.07
2023-04-09T21:12:48.535Z,86.65
2023-04-09T21:15:17.030Z,86.04
2023-04-09T21:17:45.747Z,86.05
2023-04-09T21:20:16.830Z,84.78
2023-04-09T21:22:45.094Z,85.55
2023-04-09T21:25:15.201Z,89.77
2023-04-09T21:27:43.928Z,84.04
2023-04-09T21:30:12.922Z,83.92
2023-04-09T21:32:41.187Z,81.83
2023-04-09T21:35:09.671Z,84.04
2023-04-09T21:37:39.421Z,85.58
2023-04-09T21:40:09.098Z,83.38
2023-04-09T21:42:37.298Z,86.36
2023-04-09T21:45:06.431Z,83.26
2023-04-09T21:47:34.896Z,86.50
2023-04-09T21:50:04.136Z,85.72
2023-04-09T21:52:32.583Z,88.01
2023-04-09T21:55:02.331Z,86.29
2023-04-09T21:57:30.629Z,88.77
2023-04-09T22:00:00.504Z,89.17
2023-04-09T22:02:29.957Z,92.11
2023-04-09T22:05:01.158Z,90.09
2023-04-09T22:07:29.799Z,91.77
2023-04-09T22:09:58.786Z,88.72
2023-04-09T22:12:28.441Z,86.67
2023-04-09T22:14:56.737Z,84.47
2023-04-09T22:17:25.080Z,85.09
2023-04-09T22:19:53.387Z,84.20
2023-04-09T22:22:21.780Z,81.33
2023-04-09T22:24:50.065Z,80.82
2023-04-09T22:27:18.441Z,80.80
2023-04-09T22:29:48.114Z,80.88
2023-04-09T22:32:16.853Z,79.75
2023-04-09T22:34:45.172Z,81.54
2023-04-09T22:37:13.618Z,79.08
2023-04-09T22:39:41.888Z,79.44
2023-04-09T22:42:10.744Z,82.38
2023-04-09T22:44:39.263Z,77.35
2023-04-09T22:47:08.930Z,83.53
2023-04-09T22:49:37.228Z,76.58
2023-04-09T22:52:05.790Z,75.67
2023-04-09T22:54:34.091Z,75.62
2023-04-09T22:57:03.185Z,76.54
2023-04-09T22:59:39.936Z,77.44
2023-04-09T23:02:10.545Z,76.44
2023-04-09T23:04:38.899Z,74.61
2023-04-09T23:07:08.121Z,74.31
2023-04-09T23:09:36.491Z,73.56
2023-04-09T23:12:04.740Z,75.66
2023-04-09T23:14:33.027Z,75.24
2023-04-09T23:17:01.329Z,75.53
2023-04-09T23:19:30.961Z,76.91
2023-04-09T23:21:59.251Z,79.95
2023-04-09T23:24:27.604Z,80.57
2023-04-09T23:26:56.273Z,81.23
2023-04-09T23:29:24.480Z,83.97
2023-04-09T23:31:52.921Z,83.93
2023-04-09T23:34:21.351Z,81.03
2023-04-09T23:36:51.772Z,79.29
2023-04-09T23:39:20.099Z,81.31
2023-04-09T23:41:48.291Z,84.40
2023-04-09T23:44:16.629Z,84.44
2023-04-09T23:46:44.962Z,84.42
2023-04-09T23:49:13.308Z,86.87
2023-04-09T23:51:41.533Z,85.85
2023-04-09T23:54:11.759Z,87.94
2023-04-09T23:56:40.051Z,90.42
2023-04-09T23:59:08.345Z,88.62
